sensor_id;sensor_type;location;lat;lon;timestamp;temperature;humidity
22071;DHT22;11200;51.488;6.668;2023-08-06T00:00:38;16.30;99.90
22071;DHT22;11200;51.488;6.668;2023-08-06T00:03:05;16.30;99.90
22071;DHT22;11200;51.488;6.668;2023-08-06T00:05:30;16.30;99.90
22071;DHT22;11200;51.488;6.668;2023-08-06T00:07:56;16.30;99.90
22071;DHT22;11200;51.488;6.668;2023-08-06T00:10:21;16.30;99.90
22071;DHT22;11200;51.488;6.668;2023-08-06T00:12:47;16.30;99.90
22071;DHT22;11200;51.488;6.668;2023-08-06T00:15:14;16.20;99.90
22071;DHT22;11200;51.488;6.668;2023-08-06T00:17:39;16.30;99.90
22071;DHT22;11200;51.488;6.668;2023-08-06T00:20:05;16.30;99.90
22071;DHT22;11200;51.488;6.668;2023-08-06T00:22:33;16.30;99.90
22071;DHT22;11200;51.488;6.668;2023-08-06T00:24:58;16.30;99.90
22071;DHT22;11200;51.488;6.668;2023-08-06T00:27:24;16.30;99.90
22071;DHT22;11200;51.488;6.668;2023-08-06T00:29:50;16.30;99.90
22071;DHT22;11200;51.488;6.668;2023-08-06T00:32:16;16.20;99.90
22071;DHT22;11200;51.488;6.668;2023-08-06T00:34:42;16.30;99.90
22071;DHT22;11200;51.488;6.668;2023-08-06T00:37:07;16.20;99.90
22071;DHT22;11200;51.488;6.668;2023-08-06T00:39:33;16.20;99.90
22071;DHT22;11200;51.488;6.668;2023-08-06T00:41:58;16.20;99.90
22071;DHT22;11200;51.488;6.668;2023-08-06T00:44:24;16.20;99.90
22071;DHT22;11200;51.488;6.668;2023-08-06T00:46:50;16.20;99.90
22071;DHT22;11200;51.488;6.668;2023-08-06T00:49:16;16.20;99.90
22071;DHT22;11200;51.488;6.668;2023-08-06T00:51:42;16.20;99.90
22071;DHT22;11200;51.488;6.668;2023-08-06T00:54:09;16.20;99.90
22071;DHT22;11200;51.488;6.668;2023-08-06T00:56:35;16.20;99.90
22071;DHT22;11200;51.488;6.668;2023-08-06T00:59:05;16.20;99.90
22071;DHT22;11200;51.488;6.668;2023-08-06T01:01:31;16.20;99.90
22071;DHT22;11200;51.488;6.668;2023-08-06T01:03:57;16.20;99.90
22071;DHT22;11200;51.488;6.668;2023-08-06T01:06:44;16.20;99.90
22071;DHT22;11200;51.488;6.668;2023-08-06T01:09:45;16.20;99.90
22071;DHT22;11200;51.488;6.668;2023-08-06T01:12:34;15.90;99.90
22071;DHT22;11200;51.488;6.668;2023-08-06T01:15:15;16.10;99.90
22071;DHT22;11200;51.488;6.668;2023-08-06T01:17:44;16.10;99.90
22071;DHT22;11200;51.488;6.668;2023-08-06T01:20:10;16.20;99.90
22071;DHT22;11200;51.488;6.668;2023-08-06T01:22:36;16.20;99.90
22071;DHT22;11200;51.488;6.668;2023-08-06T01:25:03;16.20;99.90
22071;DHT22;11200;51.488;6.668;2023-08-06T01:27:37;16.20;99.90
22071;DHT22;11200;51.488;6.668;2023-08-06T01:30:12;16.20;99.90
22071;DHT22;11200;51.488;6.668;2023-08-06T01:32:43;16.20;99.90
22071;DHT22;11200;51.488;6.668;2023-08-06T01:35:12;16.20;99.90
22071;DHT22;11200;51.488;6.668;2023-08-06T01:37:39;16.20;99.90
22071;DHT22;11200;51.488;6.668;2023-08-06T01:40:09;16.20;99.90
22071;DHT22;11200;51.488;6.668;2023-08-06T01:42:35;16.20;99.90
22071;DHT22;11200;51.488;6.668;2023-08-06T01:45:01;16.20;99.90
22071;DHT22;11200;51.488;6.668;2023-08-06T01:47:26;16.20;99.90
22071;DHT22;11200;51.488;6.668;2023-08-06T01:49:52;16.20;99.90
22071;DHT22;11200;51.488;6.668;2023-08-06T01:52:17;16.10;99.90
22071;DHT22;11200;51.488;6.668;2023-08-06T01:54:43;16.20;99.90
22071;DHT22;11200;51.488;6.668;2023-08-06T01:57:09;16.20;99.90
22071;DHT22;11200;51.488;6.668;2023-08-06T01:59:34;16.20;99.90
22071;DHT22;11200;51.488;6.668;2023-08-06T02:02:00;16.10;99.90
22071;DHT22;11200;51.488;6.668;2023-08-06T02:04:25;16.10;99.90
22071;DHT22;11200;51.488;6.668;2023-08-06T02:06:51;16.20;99.90
22071;DHT22;11200;51.488;6.668;2023-08-06T02:09:16;16.20;99.90
22071;DHT22;11200;51.488;6.668;2023-08-06T02:11:42;16.20;99.90
22071;DHT22;11200;51.488;6.668;2023-08-06T02:14:08;16.20;99.90
22071;DHT22;11200;51.488;6.668;2023-08-06T02:16:34;16.10;99.90
22071;DHT22;11200;51.488;6.668;2023-08-06T02:18:59;16.10;99.90
22071;DHT22;11200;51.488;6.668;2023-08-06T02:21:25;16.10;99.90
22071;DHT22;11200;51.488;6.668;2023-08-06T02:23:50;16.10;99.90
22071;DHT22;11200;51.488;6.668;2023-08-06T02:26:16;16.10;99.90
22071;DHT22;11200;51.488;6.668;2023-08-06T02:28:42;16.10;99.90
22071;DHT22;11200;51.488;6.668;2023-08-06T02:31:08;16.10;99.90
22071;DHT22;11200;51.488;6.668;2023-08-06T02:33:33;16.10;99.90
22071;DHT22;11200;51.488;6.668;2023-08-06T02:36:03;16.10;99.90
22071;DHT22;11200;51.488;6.668;2023-08-06T02:38:30;16.10;99.90
22071;DHT22;11200;51.488;6.668;2023-08-06T02:40:55;16.10;99.90
22071;DHT22;11200;51.488;6.668;2023-08-06T02:43:21;16.10;99.90
22071;DHT22;11200;51.488;6.668;2023-08-06T02:45:47;16.10;99.90
22071;DHT22;11200;51.488;6.668;2023-08-06T02:48:12;16.10;99.90
22071;DHT22;11200;51.488;6.668;2023-08-06T02:50:39;16.00;99.90
22071;DHT22;11200;51.488;6.668;2023-08-06T02:53:06;16.10;99.90
22071;DHT22;11200;51.488;6.668;2023-08-06T02:55:32;16.10;99.90
22071;DHT22;11200;51.488;6.668;2023-08-06T02:57:59;16.10;99.90
22071;DHT22;11200;51.488;6.668;2023-08-06T03:00:26;16.10;99.90
22071;DHT22;11200;51.488;6.668;2023-08-06T03:02:53;16.10;99.90
22071;DHT22;11200;51.488;6.668;2023-08-06T03:05:19;16.00;99.90
22071;DHT22;11200;51.488;6.668;2023-08-06T03:07:44;16.00;99.90
22071;DHT22;11200;51.488;6.668;2023-08-06T03:10:10;16.00;99.90
22071;DHT22;11200;51.488;6.668;2023-08-06T03:12:36;16.00;99.90
22071;DHT22;11200;51.488;6.668;2023-08-06T03:15:01;16.00;99.90
22071;DHT22;11200;51.488;6.668;2023-08-06T03:17:27;16.00;99.90
22071;DHT22;11200;51.488;6.668;2023-08-06T03:19:52;16.00;99.90
22071;DHT22;11200;51.488;6.668;2023-08-06T03:22:20;16.00;99.90
22071;DHT22;11200;51.488;6.668;2023-08-06T03:24:45;16.20;99.90
22071;DHT22;11200;51.488;6.668;2023-08-06T03:27:11;15.90;99.90
22071;DHT22;11200;51.488;6.668;2023-08-06T03:29:36;16.00;99.90
22071;DHT22;11200;51.488;6.668;2023-08-06T03:32:02;16.00;99.90
22071;DHT22;11200;51.488;6.668;2023-08-06T03:34:28;16.00;99.90
22071;DHT22;11200;51.488;6.668;2023-08-06T03:36:53;16.00;99.90
22071;DHT22;11200;51.488;6.668;2023-08-06T03:39:19;15.90;99.90
22071;DHT22;11200;51.488;6.668;2023-08-06T03:41:48;15.90;99.90
22071;DHT22;11200;51.488;6.668;2023-08-06T03:44:13;15.60;99.90
22071;DHT22;11200;51.488;6.668;2023-08-06T03:46:39;15.90;99.90
22071;DHT22;11200;51.488;6.668;2023-08-06T03:49:06;15.90;99.90
22071;DHT22;11200;51.488;6.668;2023-08-06T03:51:31;15.90;99.90
22071;DHT22;11200;51.488;6.668;2023-08-06T03:53:57;15.90;99.90
22071;DHT22;11200;51.488;6.668;2023-08-06T03:56:22;15.90;99.90
22071;DHT22;11200;51.488;6.668;2023-08-06T03:58:48;15.90;99.90
22071;DHT22;11200;51.488;6.668;2023-08-06T04:01:14;15.90;99.90
22071;DHT22;11200;51.488;6.668;2023-08-06T04:03:39;15.90;99.90
22071;DHT22;11200;51.488;6.668;2023-08-06T04:06:05;15.90;99.90
22071;DHT22;11200;51.488;6.668;2023-08-06T04:08:31;15.90;99.90
22071;DHT22;11200;51.488;6.668;2023-08-06T04:10:57;15.90;99.90
22071;DHT22;11200;51.488;6.668;2023-08-06T04:13:23;15.90;99.90
22071;DHT22;11200;51.488;6.668;2023-08-06T04:15:48;15.90;99.90
22071;DHT22;11200;51.488;6.668;2023-08-06T04:18:14;15.90;99.90
22071;DHT22;11200;51.488;6.668;2023-08-06T04:20:46;15.80;99.90
22071;DHT22;11200;51.488;6.668;2023-08-06T04:23:13;15.80;99.90
22071;DHT22;11200;51.488;6.668;2023-08-06T04:25:39;15.80;99.90
22071;DHT22;11200;51.488;6.668;2023-08-06T04:28:04;15.80;99.90
22071;DHT22;11200;51.488;6.668;2023-08-06T04:30:30;15.80;99.90
22071;DHT22;11200;51.488;6.668;2023-08-06T04:32:59;15.80;99.90
22071;DHT22;11200;51.488;6.668;2023-08-06T04:35:25;15.80;99.90
22071;DHT22;11200;51.488;6.668;2023-08-06T04:37:50;15.80;99.90
22071;DHT22;11200;51.488;6.668;2023-08-06T04:40:16;15.80;99.90
22071;DHT22;11200;51.488;6.668;2023-08-06T04:42:42;15.80;99.90
22071;DHT22;11200;51.488;6.668;2023-08-06T04:45:08;15.80;99.90
22071;DHT22;11200;51.488;6.668;2023-08-06T04:47:33;15.80;99.90
22071;DHT22;11200;51.488;6.668;2023-08-06T04:49:59;15.80;99.90
22071;DHT22;11200;51.488;6.668;2023-08-06T04:52:24;15.80;99.90
22071;DHT22;11200;51.488;6.668;2023-08-06T04:54:53;15.80;99.90
22071;DHT22;11200;51.488;6.668;2023-08-06T04:57:19;15.80;99.90
22071;DHT22;11200;51.488;6.668;2023-08-06T04:59:45;15.80;99.90
22071;DHT22;11200;51.488;6.668;2023-08-06T05:02:11;15.80;99.90
22071;DHT22;11200;51.488;6.668;2023-08-06T05:04:36;15.80;99.90
22071;DHT22;11200;51.488;6.668;2023-08-06T05:07:02;15.80;99.90
22071;DHT22;11200;51.488;6.668;2023-08-06T05:09:28;15.80;99.90
22071;DHT22;11200;51.488;6.668;2023-08-06T05:11:53;15.80;99.90
22071;DHT22;11200;51.488;6.668;2023-08-06T05:14:19;15.80;99.90
22071;DHT22;11200;51.488;6.668;2023-08-06T05:16:44;15.80;99.90
22071;DHT22;11200;51.488;6.668;2023-08-06T05:19:10;15.80;99.90
22071;DHT22;11200;51.488;6.668;2023-08-06T05:21:35;15.90;99.90
22071;DHT22;11200;51.488;6.668;2023-08-06T05:24:01;15.90;99.90
22071;DHT22;11200;51.488;6.668;2023-08-06T05:26:26;15.90;99.90
22071;DHT22;11200;51.488;6.668;2023-08-06T05:28:52;15.90;99.90
22071;DHT22;11200;51.488;6.668;2023-08-06T05:31:18;15.80;99.90
22071;DHT22;11200;51.488;6.668;2023-08-06T05:33:43;16.00;99.90
22071;DHT22;11200;51.488;6.668;2023-08-06T05:36:09;16.00;99.90
22071;DHT22;11200;51.488;6.668;2023-08-06T05:38:34;16.00;99.90
22071;DHT22;11200;51.488;6.668;2023-08-06T05:41:00;16.00;99.90
22071;DHT22;11200;51.488;6.668;2023-08-06T05:43:26;16.10;99.90
22071;DHT22;11200;51.488;6.668;2023-08-06T05:45:51;16.10;99.90
22071;DHT22;11200;51.488;6.668;2023-08-06T05:48:17;16.00;99.90
22071;DHT22;11200;51.488;6.668;2023-08-06T05:50:43;16.10;99.90
22071;DHT22;11200;51.488;6.668;2023-08-06T05:53:08;16.10;99.90
22071;DHT22;11200;51.488;6.668;2023-08-06T05:55:34;16.10;99.90
22071;DHT22;11200;51.488;6.668;2023-08-06T05:58:00;16.20;99.90
22071;DHT22;11200;51.488;6.668;2023-08-06T06:00:26;16.20;99.90
22071;DHT22;11200;51.488;6.668;2023-08-06T06:02:52;16.20;99.90
22071;DHT22;11200;51.488;6.668;2023-08-06T06:05:17;16.20;99.90
22071;DHT22;11200;51.488;6.668;2023-08-06T06:07:43;16.30;99.90
22071;DHT22;11200;51.488;6.668;2023-08-06T06:10:09;16.20;99.90
22071;DHT22;11200;51.488;6.668;2023-08-06T06:12:34;16.20;99.90
22071;DHT22;11200;51.488;6.668;2023-08-06T06:15:00;16.30;99.90
22071;DHT22;11200;51.488;6.668;2023-08-06T06:17:27;16.30;99.90
22071;DHT22;11200;51.488;6.668;2023-08-06T06:19:52;16.30;99.90
22071;DHT22;11200;51.488;6.668;2023-08-06T06:22:18;16.40;99.90
22071;DHT22;11200;51.488;6.668;2023-08-06T06:24:44;16.40;99.90
22071;DHT22;11200;51.488;6.668;2023-08-06T06:27:09;16.40;99.90
22071;DHT22;11200;51.488;6.668;2023-08-06T06:29:35;16.40;99.90
22071;DHT22;11200;51.488;6.668;2023-08-06T06:32:01;16.40;99.90
22071;DHT22;11200;51.488;6.668;2023-08-06T06:34:26;16.50;99.90
22071;DHT22;11200;51.488;6.668;2023-08-06T06:36:52;16.50;99.90
22071;DHT22;11200;51.488;6.668;2023-08-06T06:39:18;16.50;99.90
22071;DHT22;11200;51.488;6.668;2023-08-06T06:41:43;16.50;99.90
22071;DHT22;11200;51.488;6.668;2023-08-06T06:44:13;16.50;99.90
22071;DHT22;11200;51.488;6.668;2023-08-06T06:46:40;16.60;99.90
22071;DHT22;11200;51.488;6.668;2023-08-06T06:49:06;16.60;99.90
22071;DHT22;11200;51.488;6.668;2023-08-06T06:51:32;16.60;99.90
22071;DHT22;11200;51.488;6.668;2023-08-06T06:53:58;16.70;99.90
22071;DHT22;11200;51.488;6.668;2023-08-06T06:56:23;16.70;99.90
22071;DHT22;11200;51.488;6.668;2023-08-06T06:58:49;16.70;99.90
22071;DHT22;11200;51.488;6.668;2023-08-06T07:01:14;16.70;99.90
22071;DHT22;11200;51.488;6.668;2023-08-06T07:03:40;16.80;99.90
22071;DHT22;11200;51.488;6.668;2023-08-06T07:06:06;16.80;99.90
22071;DHT22;11200;51.488;6.668;2023-08-06T07:08:35;16.80;99.90
22071;DHT22;11200;51.488;6.668;2023-08-06T07:11:06;16.80;99.90
22071;DHT22;11200;51.488;6.668;2023-08-06T07:13:35;16.90;99.90
22071;DHT22;11200;51.488;6.668;2023-08-06T07:16:10;16.90;99.90
22071;DHT22;11200;51.488;6.668;2023-08-06T07:18:35;16.90;99.90
22071;DHT22;11200;51.488;6.668;2023-08-06T07:21:01;16.90;99.90
22071;DHT22;11200;51.488;6.668;2023-08-06T07:23:27;16.90;99.90
22071;DHT22;11200;51.488;6.668;2023-08-06T07:25:52;16.90;99.90
22071;DHT22;11200;51.488;6.668;2023-08-06T07:28:18;17.00;99.90
22071;DHT22;11200;51.488;6.668;2023-08-06T07:30:44;17.00;99.90
22071;DHT22;11200;51.488;6.668;2023-08-06T07:33:11;17.00;99.90
22071;DHT22;11200;51.488;6.668;2023-08-06T07:35:37;17.00;99.90
22071;DHT22;11200;51.488;6.668;2023-08-06T07:38:03;17.00;99.90
22071;DHT22;11200;51.488;6.668;2023-08-06T07:40:29;17.00;99.90
22071;DHT22;11200;51.488;6.668;2023-08-06T07:42:55;17.00;99.90
22071;DHT22;11200;51.488;6.668;2023-08-06T07:45:21;17.00;99.90
22071;DHT22;11200;51.488;6.668;2023-08-06T07:47:47;17.00;99.90
22071;DHT22;11200;51.488;6.668;2023-08-06T07:50:13;17.00;99.90
22071;DHT22;11200;51.488;6.668;2023-08-06T07:52:39;17.00;99.90
22071;DHT22;11200;51.488;6.668;2023-08-06T07:55:05;17.00;99.90
22071;DHT22;11200;51.488;6.668;2023-08-06T07:57:31;17.10;99.90
22071;DHT22;11200;51.488;6.668;2023-08-06T07:59:57;17.10;99.90
22071;DHT22;11200;51.488;6.668;2023-08-06T08:02:23;17.20;99.90
22071;DHT22;11200;51.488;6.668;2023-08-06T08:04:49;17.30;99.90
22071;DHT22;11200;51.488;6.668;2023-08-06T08:07:14;17.40;99.90
22071;DHT22;11200;51.488;6.668;2023-08-06T08:09:40;17.50;99.90
22071;DHT22;11200;51.488;6.668;2023-08-06T08:12:06;17.50;99.90
22071;DHT22;11200;51.488;6.668;2023-08-06T08:14:31;17.50;99.90
22071;DHT22;11200;51.488;6.668;2023-08-06T08:17:05;17.60;99.90
22071;DHT22;11200;51.488;6.668;2023-08-06T08:19:33;17.60;99.90
22071;DHT22;11200;51.488;6.668;2023-08-06T08:21:58;17.60;99.90
22071;DHT22;11200;51.488;6.668;2023-08-06T08:24:25;17.60;99.90
22071;DHT22;11200;51.488;6.668;2023-08-06T08:26:51;17.70;99.90
22071;DHT22;11200;51.488;6.668;2023-08-06T08:29:17;17.70;99.90
22071;DHT22;11200;51.488;6.668;2023-08-06T08:31:43;17.70;99.90
22071;DHT22;11200;51.488;6.668;2023-08-06T08:34:12;17.70;99.90
22071;DHT22;11200;51.488;6.668;2023-08-06T08:36:38;17.80;99.90
22071;DHT22;11200;51.488;6.668;2023-08-06T08:39:04;17.80;99.90
22071;DHT22;11200;51.488;6.668;2023-08-06T08:41:31;17.80;99.90
22071;DHT22;11200;51.488;6.668;2023-08-06T08:43:59;17.80;99.90
22071;DHT22;11200;51.488;6.668;2023-08-06T08:46:28;17.90;99.90
22071;DHT22;11200;51.488;6.668;2023-08-06T08:48:56;17.90;99.90
22071;DHT22;11200;51.488;6.668;2023-08-06T08:51:23;17.90;99.90
22071;DHT22;11200;51.488;6.668;2023-08-06T08:53:49;17.90;99.90
22071;DHT22;11200;51.488;6.668;2023-08-06T08:56:18;17.90;99.90
22071;DHT22;11200;51.488;6.668;2023-08-06T08:58:45;17.90;99.90
22071;DHT22;11200;51.488;6.668;2023-08-06T09:01:11;17.90;99.90
22071;DHT22;11200;51.488;6.668;2023-08-06T09:03:37;17.90;99.90
22071;DHT22;11200;51.488;6.668;2023-08-06T09:06:04;17.90;99.90
22071;DHT22;11200;51.488;6.668;2023-08-06T09:08:36;17.90;99.90
22071;DHT22;11200;51.488;6.668;2023-08-06T09:11:04;17.90;99.90
22071;DHT22;11200;51.488;6.668;2023-08-06T09:13:30;17.90;99.90
22071;DHT22;11200;51.488;6.668;2023-08-06T09:15:56;17.90;99.90
22071;DHT22;11200;51.488;6.668;2023-08-06T09:18:26;17.90;99.90
22071;DHT22;11200;51.488;6.668;2023-08-06T09:20:54;17.90;99.90
22071;DHT22;11200;51.488;6.668;2023-08-06T09:23:29;18.00;99.90
22071;DHT22;11200;51.488;6.668;2023-08-06T09:25:56;18.00;99.90
22071;DHT22;11200;51.488;6.668;2023-08-06T09:28:22;17.90;99.90
22071;DHT22;11200;51.488;6.668;2023-08-06T09:30:50;18.00;99.90
22071;DHT22;11200;51.488;6.668;2023-08-06T09:33:19;17.90;99.90
22071;DHT22;11200;51.488;6.668;2023-08-06T09:35:48;18.00;99.90
22071;DHT22;11200;51.488;6.668;2023-08-06T09:38:13;18.00;99.90
22071;DHT22;11200;51.488;6.668;2023-08-06T09:40:40;18.00;99.90
22071;DHT22;11200;51.488;6.668;2023-08-06T09:43:06;18.00;99.90
22071;DHT22;11200;51.488;6.668;2023-08-06T09:45:37;18.00;99.90
22071;DHT22;11200;51.488;6.668;2023-08-06T09:48:08;18.00;99.90
22071;DHT22;11200;51.488;6.668;2023-08-06T09:50:35;18.00;99.90
22071;DHT22;11200;51.488;6.668;2023-08-06T09:53:03;18.10;99.90
22071;DHT22;11200;51.488;6.668;2023-08-06T09:55:29;18.10;99.90
22071;DHT22;11200;51.488;6.668;2023-08-06T09:57:55;18.10;99.90
22071;DHT22;11200;51.488;6.668;2023-08-06T10:00:22;18.20;99.90
22071;DHT22;11200;51.488;6.668;2023-08-06T10:02:49;18.30;99.90
22071;DHT22;11200;51.488;6.668;2023-08-06T10:05:17;18.40;99.90
22071;DHT22;11200;51.488;6.668;2023-08-06T10:07:44;18.50;99.90
22071;DHT22;11200;51.488;6.668;2023-08-06T10:10:10;18.50;99.90
22071;DHT22;11200;51.488;6.668;2023-08-06T10:12:43;18.60;99.90
22071;DHT22;11200;51.488;6.668;2023-08-06T10:15:14;18.70;99.90
22071;DHT22;11200;51.488;6.668;2023-08-06T10:17:41;18.80;99.90
22071;DHT22;11200;51.488;6.668;2023-08-06T10:20:08;18.90;99.90
22071;DHT22;11200;51.488;6.668;2023-08-06T10:22:34;18.90;99.90
22071;DHT22;11200;51.488;6.668;2023-08-06T10:25:01;19.00;99.90
22071;DHT22;11200;51.488;6.668;2023-08-06T10:27:40;19.10;99.90
22071;DHT22;11200;51.488;6.668;2023-08-06T10:30:27;19.10;99.90
22071;DHT22;11200;51.488;6.668;2023-08-06T10:32:58;19.20;99.90
22071;DHT22;11200;51.488;6.668;2023-08-06T10:38:30;19.30;99.90
22071;DHT22;11200;51.488;6.668;2023-08-06T10:41:00;19.30;99.90
22071;DHT22;11200;51.488;6.668;2023-08-06T10:43:35;19.30;99.90
22071;DHT22;11200;51.488;6.668;2023-08-06T10:46:03;19.30;99.90
22071;DHT22;11200;51.488;6.668;2023-08-06T10:48:38;19.30;99.90
22071;DHT22;11200;51.488;6.668;2023-08-06T10:51:08;19.20;99.90
22071;DHT22;11200;51.488;6.668;2023-08-06T10:53:34;19.20;99.90
22071;DHT22;11200;51.488;6.668;2023-08-06T10:56:18;19.10;99.90
22071;DHT22;11200;51.488;6.668;2023-08-06T10:58:45;19.10;99.90
22071;DHT22;11200;51.488;6.668;2023-08-06T11:01:14;19.00;99.90
22071;DHT22;11200;51.488;6.668;2023-08-06T11:03:41;18.90;99.90
22071;DHT22;11200;51.488;6.668;2023-08-06T11:06:07;18.90;99.90
22071;DHT22;11200;51.488;6.668;2023-08-06T11:08:35;18.80;99.90
22071;DHT22;11200;51.488;6.668;2023-08-06T11:11:12;18.70;99.90
22071;DHT22;11200;51.488;6.668;2023-08-06T11:13:49;18.60;99.90
22071;DHT22;11200;51.488;6.668;2023-08-06T11:16:19;18.50;99.90
22071;DHT22;11200;51.488;6.668;2023-08-06T11:18:45;18.40;99.90
22071;DHT22;11200;51.488;6.668;2023-08-06T11:21:11;18.40;99.90
22071;DHT22;11200;51.488;6.668;2023-08-06T11:23:41;18.30;99.90
22071;DHT22;11200;51.488;6.668;2023-08-06T11:26:08;18.20;99.90
22071;DHT22;11200;51.488;6.668;2023-08-06T11:28:33;18.10;99.90
22071;DHT22;11200;51.488;6.668;2023-08-06T11:30:59;18.00;99.90
22071;DHT22;11200;51.488;6.668;2023-08-06T11:33:31;18.00;99.90
22071;DHT22;11200;51.488;6.668;2023-08-06T11:35:58;18.00;99.90
22071;DHT22;11200;51.488;6.668;2023-08-06T11:38:30;17.90;99.90
22071;DHT22;11200;51.488;6.668;2023-08-06T11:40:57;17.90;99.90
22071;DHT22;11200;51.488;6.668;2023-08-06T11:43:22;17.80;99.90
22071;DHT22;11200;51.488;6.668;2023-08-06T11:45:49;17.70;99.90
22071;DHT22;11200;51.488;6.668;2023-08-06T11:48:16;17.70;99.90
22071;DHT22;11200;51.488;6.668;2023-08-06T11:50:42;17.70;99.90
22071;DHT22;11200;51.488;6.668;2023-08-06T11:53:12;17.60;99.90
22071;DHT22;11200;51.488;6.668;2023-08-06T11:55:38;17.60;99.90
22071;DHT22;11200;51.488;6.668;2023-08-06T11:58:06;17.60;99.90
22071;DHT22;11200;51.488;6.668;2023-08-06T12:00:32;17.50;99.90
22071;DHT22;11200;51.488;6.668;2023-08-06T12:02:58;17.60;99.90
22071;DHT22;11200;51.488;6.668;2023-08-06T12:05:30;17.50;99.90
22071;DHT22;11200;51.488;6.668;2023-08-06T12:08:00;17.60;99.90
22071;DHT22;11200;51.488;6.668;2023-08-06T12:10:28;17.50;99.90
22071;DHT22;11200;51.488;6.668;2023-08-06T12:12:54;17.50;99.90
22071;DHT22;11200;51.488;6.668;2023-08-06T12:15:20;17.50;99.90
22071;DHT22;11200;51.488;6.668;2023-08-06T12:17:47;17.50;99.90
22071;DHT22;11200;51.488;6.668;2023-08-06T12:20:12;17.50;99.90
22071;DHT22;11200;51.488;6.668;2023-08-06T12:22:38;17.40;99.90
22071;DHT22;11200;51.488;6.668;2023-08-06T12:25:09;17.50;99.90
22071;DHT22;11200;51.488;6.668;2023-08-06T12:27:42;17.50;99.90
22071;DHT22;11200;51.488;6.668;2023-08-06T12:30:09;17.50;99.90
22071;DHT22;11200;51.488;6.668;2023-08-06T12:32:38;17.50;99.90
22071;DHT22;11200;51.488;6.668;2023-08-06T12:35:05;17.50;99.90
22071;DHT22;11200;51.488;6.668;2023-08-06T12:37:33;17.50;99.90
22071;DHT22;11200;51.488;6.668;2023-08-06T12:39:58;17.50;99.90
22071;DHT22;11200;51.488;6.668;2023-08-06T12:42:24;17.50;99.90
22071;DHT22;11200;51.488;6.668;2023-08-06T12:44:51;17.50;99.90
22071;DHT22;11200;51.488;6.668;2023-08-06T12:47:17;17.50;99.90
22071;DHT22;11200;51.488;6.668;2023-08-06T12:49:43;17.50;99.90
22071;DHT22;11200;51.488;6.668;2023-08-06T12:52:09;17.50;99.90
22071;DHT22;11200;51.488;6.668;2023-08-06T12:54:37;17.50;99.90
22071;DHT22;11200;51.488;6.668;2023-08-06T12:57:04;17.50;99.90
22071;DHT22;11200;51.488;6.668;2023-08-06T12:59:29;17.50;99.90
22071;DHT22;11200;51.488;6.668;2023-08-06T13:01:55;17.50;99.90
22071;DHT22;11200;51.488;6.668;2023-08-06T13:04:21;17.50;99.90
22071;DHT22;11200;51.488;6.668;2023-08-06T13:06:47;17.50;99.90
22071;DHT22;11200;51.488;6.668;2023-08-06T13:09:13;17.50;99.90
22071;DHT22;11200;51.488;6.668;2023-08-06T13:11:41;17.50;99.90
22071;DHT22;11200;51.488;6.668;2023-08-06T13:14:12;17.40;99.90
22071;DHT22;11200;51.488;6.668;2023-08-06T13:16:41;17.50;99.90
22071;DHT22;11200;51.488;6.668;2023-08-06T13:19:07;17.50;99.90
22071;DHT22;11200;51.488;6.668;2023-08-06T13:21:35;17.40;99.90
22071;DHT22;11200;51.488;6.668;2023-08-06T13:24:01;17.50;99.90
22071;DHT22;11200;51.488;6.668;2023-08-06T13:26:31;17.50;99.90
22071;DHT22;11200;51.488;6.668;2023-08-06T13:29:00;17.50;99.90
22071;DHT22;11200;51.488;6.668;2023-08-06T13:31:27;17.50;99.90
22071;DHT22;11200;51.488;6.668;2023-08-06T13:33:56;17.50;99.90
22071;DHT22;11200;51.488;6.668;2023-08-06T13:36:24;17.60;99.90
22071;DHT22;11200;51.488;6.668;2023-08-06T13:38:50;17.70;99.90
22071;DHT22;11200;51.488;6.668;2023-08-06T13:41:16;17.70;99.90
22071;DHT22;11200;51.488;6.668;2023-08-06T13:43:42;17.70;99.90
22071;DHT22;11200;51.488;6.668;2023-08-06T13:46:09;17.80;99.90
22071;DHT22;11200;51.488;6.668;2023-08-06T13:48:39;17.80;99.90
22071;DHT22;11200;51.488;6.668;2023-08-06T13:51:05;17.90;99.90
22071;DHT22;11200;51.488;6.668;2023-08-06T13:53:31;18.00;99.90
22071;DHT22;11200;51.488;6.668;2023-08-06T13:55:57;18.00;99.90
22071;DHT22;11200;51.488;6.668;2023-08-06T13:58:23;18.00;99.90
22071;DHT22;11200;51.488;6.668;2023-08-06T14:00:49;18.10;99.90
22071;DHT22;11200;51.488;6.668;2023-08-06T14:03:15;18.20;99.90
22071;DHT22;11200;51.488;6.668;2023-08-06T14:05:41;18.20;99.90
22071;DHT22;11200;51.488;6.668;2023-08-06T14:08:07;18.20;99.90
22071;DHT22;11200;51.488;6.668;2023-08-06T14:10:35;18.30;99.90
22071;DHT22;11200;51.488;6.668;2023-08-06T14:13:00;18.30;99.90
22071;DHT22;11200;51.488;6.668;2023-08-06T14:15:29;18.30;99.90
22071;DHT22;11200;51.488;6.668;2023-08-06T14:17:54;18.40;99.90
22071;DHT22;11200;51.488;6.668;2023-08-06T14:20:20;18.30;99.90
22071;DHT22;11200;51.488;6.668;2023-08-06T14:22:45;18.40;99.90
22071;DHT22;11200;51.488;6.668;2023-08-06T14:25:11;18.40;99.90
22071;DHT22;11200;51.488;6.668;2023-08-06T14:27:36;18.40;99.90
22071;DHT22;11200;51.488;6.668;2023-08-06T14:30:05;18.40;99.90
22071;DHT22;11200;51.488;6.668;2023-08-06T14:32:35;18.40;99.90
22071;DHT22;11200;51.488;6.668;2023-08-06T14:35:00;18.40;99.90
22071;DHT22;11200;51.488;6.668;2023-08-06T14:37:26;18.40;99.90
22071;DHT22;11200;51.488;6.668;2023-08-06T14:39:52;18.40;99.90
22071;DHT22;11200;51.488;6.668;2023-08-06T14:42:17;18.40;99.90
22071;DHT22;11200;51.488;6.668;2023-08-06T14:44:43;18.40;99.90
22071;DHT22;11200;51.488;6.668;2023-08-06T14:47:09;18.40;99.90
22071;DHT22;11200;51.488;6.668;2023-08-06T14:49:34;18.70;99.90
22071;DHT22;11200;51.488;6.668;2023-08-06T14:52:00;18.50;99.90
22071;DHT22;11200;51.488;6.668;2023-08-06T14:54:27;18.50;99.90
22071;DHT22;11200;51.488;6.668;2023-08-06T14:56:53;18.50;99.90
22071;DHT22;11200;51.488;6.668;2023-08-06T14:59:18;18.60;99.90
22071;DHT22;11200;51.488;6.668;2023-08-06T15:01:44;18.60;99.90
22071;DHT22;11200;51.488;6.668;2023-08-06T15:04:10;18.60;99.90
22071;DHT22;11200;51.488;6.668;2023-08-06T15:06:35;18.60;99.90
22071;DHT22;11200;51.488;6.668;2023-08-06T15:09:07;18.60;99.90
22071;DHT22;11200;51.488;6.668;2023-08-06T15:11:33;18.60;99.90
22071;DHT22;11200;51.488;6.668;2023-08-06T15:14:02;18.60;99.90
22071;DHT22;11200;51.488;6.668;2023-08-06T15:16:30;18.60;99.90
22071;DHT22;11200;51.488;6.668;2023-08-06T15:18:55;18.60;99.90
22071;DHT22;11200;51.488;6.668;2023-08-06T15:21:24;18.60;99.90
22071;DHT22;11200;51.488;6.668;2023-08-06T15:23:49;18.60;99.90
22071;DHT22;11200;51.488;6.668;2023-08-06T15:26:15;18.60;99.90
22071;DHT22;11200;51.488;6.668;2023-08-06T15:28:41;18.60;99.90
22071;DHT22;11200;51.488;6.668;2023-08-06T15:31:06;18.60;99.90